Pau d'Arco, Brazil
Current Conditions -  °F | °C
As of 11:00 AM on Sunday 23 Nov 2014 (Local Time) from SBCJ Reporting Station
Light Fog Light Fog  
Wind Chill: 73°   Ceiling: 300
Heat Index: 73°   Visibility: 0.93mi
Dew Point: 72°   Wind: 5mph
Humidity: 94%   Direction: 20°NNE
Pressure: 30"   Gusts: NA
Location:  7.54°S, 49.37°W
Report Text: SBCJ 231400Z 02004KT 1500 0900E R10/P2000 R28/P2000 BCFG BR SCT002 BKN003 23/22 Q1016
Loading
Personal Weather Stations






























Interactive Weather Map New forecast layout! Learn more

10-Day Weather Forecast

Advertisements
Track Severe Weather on mobile